Time;durP1;ratioP1;P1;durP2;ratioP2;P2;SDS_P1;SDS_P2;PMS_P1;PMS_P2;Temp;Humidity;BMP_temperature;BMP_pressure;BME280_temperature;BME280_humidity;BME280_pressure;Samples;Min_cycle;Max_cycle;Signal;HPM_P1;HPM_P2
2020/12/12 00:01:04;;;;;;;20.03;16.80;;;3.80;99.90;;;;;;5086112;28;20671;-84
2020/12/12 00:03:30;;;;;;;19.07;17.07;;;3.80;99.90;;;;;;5084141;28;20644;-84
2020/12/12 00:05:57;;;;;;;20.23;18.10;;;3.90;99.90;;;;;;5085924;28;20631;-83
2020/12/12 00:08:23;;;;;;;19.60;17.60;;;3.80;99.90;;;;;;5088410;28;21262;-84
2020/12/12 00:10:50;;;;;;;19.83;17.50;;;3.90;99.90;;;;;;5084759;28;20641;-83
2020/12/12 00:13:17;;;;;;;18.07;16.37;;;3.90;99.90;;;;;;5085500;28;21128;-83
2020/12/12 00:15:43;;;;;;;18.73;16.83;;;3.90;99.90;;;;;;5085957;28;20672;-84
2020/12/12 00:18:10;;;;;;;20.47;18.40;;;3.90;99.90;;;;;;5085142;28;20631;-84
2020/12/12 00:20:36;;;;;;;20.93;18.40;;;3.90;99.90;;;;;;5086211;28;20652;-83
2020/12/12 00:23:02;;;;;;;20.30;18.23;;;4.00;99.90;;;;;;5084155;28;20631;-82
2020/12/12 00:25:29;;;;;;;20.43;18.23;;;4.00;99.90;;;;;;5084525;28;20623;-83
2020/12/12 00:27:56;;;;;;;20.53;18.53;;;4.00;99.90;;;;;;5080934;28;20620;-83
2020/12/12 00:30:23;;;;;;;19.80;18.00;;;4.00;99.90;;;;;;5076132;28;21243;-84
2020/12/12 00:32:49;;;;;;;22.17;20.07;;;4.00;99.90;;;;;;5084718;28;20636;-83
2020/12/12 00:35:16;;;;;;;21.37;18.80;;;4.10;99.90;;;;;;5089726;28;20640;-83
2020/12/12 00:37:42;;;;;;;20.03;18.13;;;4.00;99.90;;;;;;5082843;28;21175;-81
2020/12/12 00:40:08;;;;;;;21.30;19.20;;;4.00;99.90;;;;;;5087798;28;21238;-82
2020/12/12 00:42:35;;;;;;;22.10;19.90;;;4.00;99.90;;;;;;5092390;28;20628;-82
2020/12/12 00:45:03;;;;;;;20.70;18.50;;;4.00;99.90;;;;;;5088161;28;20633;-82
2020/12/12 00:47:31;;;;;;;22.57;19.07;;;3.90;99.90;;;;;;5082729;28;20628;-83
2020/12/12 00:49:57;;;;;;;20.53;18.43;;;4.00;99.90;;;;;;5080575;28;20660;-82
2020/12/12 00:52:24;;;;;;;20.33;18.43;;;4.00;99.90;;;;;;5088497;28;21196;-83
2020/12/12 00:54:50;;;;;;;20.33;18.20;;;4.00;99.90;;;;;;5088667;28;20693;-83
2020/12/12 00:57:17;;;;;;;20.57;18.53;;;3.90;99.90;;;;;;5090694;28;20668;-84
2020/12/12 00:59:44;;;;;;;20.80;18.70;;;4.00;99.90;;;;;;5087248;28;20708;-83
2020/12/12 01:02:11;;;;;;;20.90;18.80;;;4.00;99.90;;;;;;5087628;28;20720;-83
2020/12/12 01:04:38;;;;;;;22.30;19.93;;;4.00;99.90;;;;;;5090106;28;20644;-84
2020/12/12 01:07:04;;;;;;;20.87;18.77;;;4.00;99.90;;;;;;5085665;28;20629;-84
2020/12/12 01:09:31;;;;;;;21.20;19.00;;;3.90;99.90;;;;;;5088992;28;20649;-83
2020/12/12 01:11:57;;;;;;;22.63;18.63;;;4.00;99.90;;;;;;5089202;28;20656;-84
2020/12/12 01:14:24;;;;;;;22.87;20.57;;;4.10;99.90;;;;;;5088732;28;20671;-84
2020/12/12 01:16:50;;;;;;;22.50;20.27;;;4.00;99.90;;;;;;5088011;28;20664;-83
2020/12/12 01:19:17;;;;;;;22.80;20.53;;;4.10;99.90;;;;;;5088310;28;20651;-83
2020/12/12 01:21:44;;;;;;;22.20;19.90;;;4.00;99.90;;;;;;5087189;28;20616;-84
2020/12/12 01:24:15;;;;;;;23.93;21.37;;;4.00;99.90;;;;;;5088140;28;20616;-84
2020/12/12 01:26:45;;;;;;;22.80;20.20;;;4.00;99.90;;;;;;5090107;28;20678;-83
2020/12/12 01:29:12;;;;;;;24.47;21.90;;;3.90;99.90;;;;;;5087400;28;20651;-83
2020/12/12 01:31:38;;;;;;;25.27;22.67;;;4.00;99.90;;;;;;5092041;27;20755;-83
2020/12/12 01:34:05;;;;;;;24.50;21.97;;;4.10;99.90;;;;;;5087402;28;20623;-83
2020/12/12 01:36:33;;;;;;;25.00;22.37;;;4.00;99.90;;;;;;5086616;28;20664;-83
2020/12/12 01:38:59;;;;;;;24.10;21.70;;;4.00;99.90;;;;;;5085606;28;20628;-83
2020/12/12 01:41:25;;;;;;;22.30;20.17;;;4.00;99.90;;;;;;5084885;28;20672;-83
2020/12/12 01:43:53;;;;;;;24.60;21.40;;;4.00;99.90;;;;;;5083786;28;20627;-83
2020/12/12 01:46:23;;;;;;;23.50;20.47;;;4.00;99.90;;;;;;5086759;28;20612;-84
2020/12/12 01:48:53;;;;;;;24.83;22.33;;;4.00;99.90;;;;;;5088462;28;20684;-84
2020/12/12 01:51:24;;;;;;;24.20;21.80;;;4.00;99.90;;;;;;5088595;28;21015;-83
2020/12/12 01:53:54;;;;;;;23.90;21.30;;;4.00;99.90;;;;;;5089682;28;21269;-83
2020/12/12 01:56:21;;;;;;;23.80;21.50;;;4.00;99.90;;;;;;5086350;28;21263;-83
2020/12/12 01:58:47;;;;;;;25.77;23.13;;;4.00;99.90;;;;;;5089871;28;20640;-83
2020/12/12 02:01:14;;;;;;;24.13;21.57;;;4.00;99.90;;;;;;5088140;28;20655;-83
2020/12/12 02:03:43;;;;;;;23.07;20.73;;;4.00;99.90;;;;;;5082963;28;20628;-83
2020/12/12 02:06:12;;;;;;;23.33;20.93;;;4.00;99.90;;;;;;5090083;28;20747;-83
2020/12/12 02:08:39;;;;;;;23.40;20.90;;;4.00;99.90;;;;;;5087601;28;20617;-83
2020/12/12 02:11:10;;;;;;;24.43;21.90;;;3.90;99.90;;;;;;5083506;28;20671;-84
2020/12/12 02:13:36;;;;;;;24.97;21.70;;;3.90;99.90;;;;;;5083696;28;20640;-83
2020/12/12 02:16:03;;;;;;;23.40;21.17;;;3.90;99.90;;;;;;5089778;28;20672;-84
2020/12/12 02:18:29;;;;;;;24.33;21.77;;;3.80;99.90;;;;;;5090096;28;20620;-84
2020/12/12 02:20:58;;;;;;;23.70;21.17;;;3.80;99.90;;;;;;5090794;28;20648;-84
2020/12/12 02:23:25;;;;;;;26.60;23.70;;;3.80;99.90;;;;;;5086891;28;20624;-84
2020/12/12 02:25:53;;;;;;;26.90;23.57;;;3.80;99.90;;;;;;5088002;28;20616;-84
2020/12/12 02:28:22;;;;;;;24.87;22.20;;;3.80;99.90;;;;;;5089942;28;20632;-83
2020/12/12 02:30:49;;;;;;;24.80;22.10;;;3.70;99.90;;;;;;5091765;28;20660;-83
2020/12/12 02:33:15;;;;;;;24.87;22.27;;;3.80;99.90;;;;;;5090324;28;20634;-83
2020/12/12 02:35:42;;;;;;;26.63;22.50;;;3.70;99.90;;;;;;5089137;28;20661;-84
2020/12/12 02:38:08;;;;;;;23.30;20.57;;;3.70;99.90;;;;;;5087996;28;20980;-84
2020/12/12 02:40:35;;;;;;;25.27;22.57;;;3.80;99.90;;;;;;5082383;28;20672;-83
2020/12/12 02:43:02;;;;;;;23.10;20.73;;;3.70;99.90;;;;;;5078883;28;20972;-83
2020/12/12 02:45:28;;;;;;;23.87;21.40;;;3.70;99.90;;;;;;5088447;28;20971;-84
2020/12/12 02:47:55;;;;;;;27.27;23.77;;;3.70;99.90;;;;;;5085773;28;21245;-83
2020/12/12 02:50:26;;;;;;;27.03;23.90;;;3.70;99.90;;;;;;5087606;28;21378;-83
2020/12/12 02:52:53;;;;;;;25.37;22.63;;;3.70;99.90;;;;;;5079633;28;20645;-83
2020/12/12 02:55:21;;;;;;;26.87;24.00;;;3.70;99.90;;;;;;5085807;28;20624;-84
2020/12/12 02:57:48;;;;;;;25.47;22.70;;;3.60;99.90;;;;;;5084303;28;20617;-83
2020/12/12 03:00:17;;;;;;;23.30;20.93;;;3.60;99.90;;;;;;5086591;28;20664;-82
2020/12/12 03:02:43;;;;;;;24.93;21.23;;;3.50;99.90;;;;;;5079620;28;21039;-83
2020/12/12 03:05:09;;;;;;;22.10;19.80;;;3.40;99.90;;;;;;5086003;28;20632;-83
2020/12/12 03:07:37;;;;;;;22.63;19.87;;;3.30;99.90;;;;;;5080706;28;20624;-84
2020/12/12 03:10:06;;;;;;;24.33;21.80;;;3.40;99.90;;;;;;5083207;28;20640;-83
2020/12/12 03:12:33;;;;;;;24.00;20.20;;;3.40;99.90;;;;;;5085558;28;20636;-83
2020/12/12 03:15:01;;;;;;;20.70;18.40;;;3.40;99.90;;;;;;5086912;28;20613;-84
2020/12/12 03:17:27;;;;;;;23.50;19.13;;;3.40;99.90;;;;;;5085157;28;20671;-84
2020/12/12 03:19:54;;;;;;;21.20;19.10;;;3.50;99.90;;;;;;5084163;28;21310;-84
2020/12/12 03:22:20;;;;;;;23.50;21.00;;;3.50;99.90;;;;;;5083708;28;20632;-84
2020/12/12 03:24:47;;;;;;;21.30;19.10;;;3.50;99.90;;;;;;5083153;28;20628;-84
2020/12/12 03:27:13;;;;;;;21.60;19.27;;;3.50;99.90;;;;;;5083035;28;20637;-84
2020/12/12 03:29:39;;;;;;;22.73;20.43;;;3.50;99.90;;;;;;5086278;28;20679;-84
2020/12/12 03:32:08;;;;;;;24.93;22.40;;;3.50;99.90;;;;;;5082268;28;20621;-83
2020/12/12 03:34:34;;;;;;;21.23;18.83;;;3.60;99.90;;;;;;5085719;28;20628;-84
2020/12/12 03:37:00;;;;;;;22.40;19.93;;;3.50;99.90;;;;;;5080699;28;20661;-84
2020/12/12 03:39:27;;;;;;;22.30;20.10;;;3.50;99.90;;;;;;5085521;28;20621;-84
2020/12/12 03:41:53;;;;;;;25.57;22.80;;;3.50;99.90;;;;;;5083514;28;20637;-85
2020/12/12 03:44:19;;;;;;;26.10;23.20;;;3.60;99.90;;;;;;5083656;28;20625;-85
2020/12/12 03:46:45;;;;;;;29.10;22.37;;;3.60;99.90;;;;;;5082015;28;20632;-84
2020/12/12 03:49:14;;;;;;;24.53;21.90;;;3.70;99.90;;;;;;5084001;28;20628;-85
2020/12/12 03:51:40;;;;;;;25.13;22.43;;;3.70;99.90;;;;;;5086986;28;20608;-84
2020/12/12 03:54:06;;;;;;;27.73;24.57;;;3.70;99.90;;;;;;5084942;28;20648;-84
2020/12/12 03:56:33;;;;;;;25.13;22.53;;;3.60;99.90;;;;;;5086418;28;20645;-85
2020/12/12 03:58:59;;;;;;;26.77;24.07;;;3.70;99.90;;;;;;5083266;28;20683;-84
2020/12/12 04:01:25;;;;;;;26.23;23.43;;;3.80;99.90;;;;;;5084134;28;20652;-84
2020/12/12 04:03:51;;;;;;;24.87;22.23;;;3.80;99.90;;;;;;5083088;28;20612;-84
2020/12/12 04:06:21;;;;;;;25.10;22.60;;;3.90;99.90;;;;;;5086080;28;20616;-84
2020/12/12 04:08:47;;;;;;;22.53;20.17;;;3.80;99.90;;;;;;5084111;28;20634;-84
2020/12/12 04:11:14;;;;;;;22.60;20.30;;;3.90;99.90;;;;;;5086147;28;20995;-84
2020/12/12 04:13:40;;;;;;;21.50;18.90;;;3.90;99.90;;;;;;5084375;28;21170;-84
2020/12/12 04:16:06;;;;;;;23.23;20.70;;;3.90;99.90;;;;;;5082894;28;20660;-84
2020/12/12 04:18:32;;;;;;;19.87;17.87;;;3.80;99.90;;;;;;5084489;28;20629;-84
2020/12/12 04:20:59;;;;;;;19.77;17.73;;;3.80;99.90;;;;;;5088271;28;20660;-83
2020/12/12 04:23:26;;;;;;;20.93;17.93;;;3.90;99.90;;;;;;5087081;28;20621;-84
2020/12/12 04:25:52;;;;;;;19.37;17.37;;;3.90;99.90;;;;;;5085945;28;20641;-83
2020/12/12 04:28:18;;;;;;;22.43;18.60;;;3.90;99.90;;;;;;5082277;28;20636;-83
2020/12/12 04:30:44;;;;;;;19.67;17.67;;;3.90;99.90;;;;;;5084641;28;20652;-83
2020/12/12 04:33:11;;;;;;;20.70;18.70;;;3.90;99.90;;;;;;5084546;28;20981;-83
2020/12/12 04:35:37;;;;;;;19.70;17.70;;;3.90;99.90;;;;;;5083810;28;20656;-83
2020/12/12 04:38:03;;;;;;;21.63;18.57;;;3.90;99.90;;;;;;5083077;28;20628;-84
2020/12/12 04:40:30;;;;;;;20.47;18.17;;;3.90;99.90;;;;;;5084122;28;20653;-83
2020/12/12 04:42:57;;;;;;;18.90;17.00;;;3.90;99.90;;;;;;5083653;28;20625;-83
2020/12/12 04:45:24;;;;;;;19.17;17.07;;;3.90;99.90;;;;;;5083982;28;20631;-83
2020/12/12 04:47:50;;;;;;;19.40;17.30;;;3.80;99.90;;;;;;5084427;28;20613;-83
2020/12/12 04:50:17;;;;;;;19.87;17.87;;;3.80;99.90;;;;;;5084985;28;20660;-84
2020/12/12 04:52:44;;;;;;;21.17;18.83;;;3.80;99.90;;;;;;5083624;28;20624;-83
2020/12/12 04:55:11;;;;;;;19.40;17.43;;;3.80;99.90;;;;;;5084680;28;20629;-83
2020/12/12 04:57:39;;;;;;;21.03;18.77;;;3.90;99.90;;;;;;5082295;28;21107;-82
2020/12/12 05:00:08;;;;;;;21.10;18.90;;;3.80;99.90;;;;;;5083123;28;20664;-82
2020/12/12 05:02:35;;;;;;;20.27;18.20;;;3.90;99.90;;;;;;5085530;28;20632;-83
2020/12/12 05:05:01;;;;;;;19.27;17.27;;;3.80;99.90;;;;;;5083473;28;21178;-83
2020/12/12 05:07:28;;;;;;;20.27;18.17;;;3.80;99.90;;;;;;5084060;28;21170;-84
2020/12/12 05:09:54;;;;;;;19.03;17.10;;;3.80;99.90;;;;;;5085215;28;20648;-84
2020/12/12 05:12:22;;;;;;;19.53;17.53;;;3.80;99.90;;;;;;5078057;28;20632;-84
2020/12/12 05:14:50;;;;;;;18.80;16.80;;;3.80;99.90;;;;;;5085090;28;20629;-83
2020/12/12 05:17:18;;;;;;;20.10;18.00;;;3.90;99.90;;;;;;5084893;28;20668;-83
2020/12/12 05:19:47;;;;;;;19.73;17.73;;;3.90;99.90;;;;;;5084471;28;20644;-84
2020/12/12 05:22:16;;;;;;;18.70;16.90;;;3.90;99.90;;;;;;5084203;28;20634;-83
2020/12/12 05:24:42;;;;;;;18.47;16.57;;;3.80;99.90;;;;;;5080326;28;20633;-83
2020/12/12 05:27:09;;;;;;;20.03;18.03;;;3.90;99.90;;;;;;5086505;28;20624;-84
2020/12/12 05:29:36;;;;;;;21.50;19.40;;;3.90;99.90;;;;;;5088040;28;20652;-83
2020/12/12 05:32:04;;;;;;;18.00;16.20;;;3.90;99.90;;;;;;5086995;28;20656;-83
2020/12/12 05:34:34;;;;;;;17.60;15.90;;;3.90;99.90;;;;;;5084894;28;20644;-83
2020/12/12 05:37:02;;;;;;;17.90;16.10;;;3.90;99.90;;;;;;5088555;28;20667;-84
2020/12/12 05:39:28;;;;;;;18.83;17.00;;;3.90;99.90;;;;;;5092415;28;20639;-84
2020/12/12 05:41:54;;;;;;;18.63;16.73;;;4.00;99.90;;;;;;5086608;28;20636;-83
2020/12/12 05:44:21;;;;;;;17.73;15.90;;;4.00;99.90;;;;;;5087370;28;20620;-84
2020/12/12 05:46:47;;;;;;;19.63;17.60;;;4.00;99.90;;;;;;5087240;28;20617;-84
2020/12/12 05:49:15;;;;;;;18.00;16.20;;;4.00;99.90;;;;;;5087279;28;21207;-83
2020/12/12 05:51:41;;;;;;;18.00;16.30;;;4.00;99.90;;;;;;5086832;28;20996;-84
2020/12/12 05:54:08;;;;;;;18.33;16.50;;;4.00;99.90;;;;;;5086051;28;20633;-83
2020/12/12 05:56:35;;;;;;;18.17;15.73;;;4.00;99.90;;;;;;5086982;28;20675;-84
2020/12/12 05:59:01;;;;;;;18.63;16.77;;;4.00;99.90;;;;;;5087031;28;20723;-84
2020/12/12 06:01:30;;;;;;;16.73;15.23;;;4.00;99.90;;;;;;5085251;28;20648;-84
2020/12/12 06:04:02;;;;;;;18.73;16.73;;;4.00;99.90;;;;;;5087707;28;20676;-84
2020/12/12 06:06:31;;;;;;;17.27;15.67;;;4.00;99.90;;;;;;5087537;28;20605;-84
2020/12/12 06:09:04;;;;;;;17.93;16.23;;;4.10;99.90;;;;;;5085196;28;21023;-83
2020/12/12 06:11:32;;;;;;;17.77;15.97;;;4.10;99.90;;;;;;5085103;28;20648;-84
2020/12/12 06:14:00;;;;;;;17.40;15.47;;;4.20;99.90;;;;;;5086042;28;20639;-84
2020/12/12 06:16:30;;;;;;;18.43;16.53;;;4.20;99.90;;;;;;5086779;28;20671;-84
2020/12/12 06:19:07;;;;;;;16.60;15.00;;;4.20;99.90;;;;;;5082044;28;20620;-84
2020/12/12 06:21:35;;;;;;;18.00;16.10;;;4.20;99.90;;;;;;5088535;28;20663;-84
2020/12/12 06:24:03;;;;;;;20.20;18.00;;;4.20;99.90;;;;;;5087870;28;20643;-84
2020/12/12 06:26:44;;;;;;;19.57;17.57;;;4.20;99.90;;;;;;5088072;28;20623;-84
2020/12/12 06:29:14;;;;;;;19.77;17.70;;;4.20;99.90;;;;;;5085309;28;20585;-84
2020/12/12 06:31:42;;;;;;;17.50;15.80;;;4.20;99.90;;;;;;5086306;28;20624;-83
2020/12/12 06:34:09;;;;;;;19.30;17.30;;;4.20;99.90;;;;;;5085329;28;21046;-83
2020/12/12 06:36:36;;;;;;;20.23;18.23;;;4.20;99.90;;;;;;5088405;28;20678;-84
2020/12/12 06:39:16;;;;;;;17.97;16.23;;;4.20;99.90;;;;;;5086896;28;21178;-85
2020/12/12 06:41:43;;;;;;;17.63;16.00;;;4.20;99.90;;;;;;5088008;28;20864;-85
2020/12/12 06:44:09;;;;;;;15.03;13.47;;;4.20;99.90;;;;;;5082718;28;20628;-85
2020/12/12 06:46:52;;;;;;;14.90;13.50;;;4.20;99.90;;;;;;5088435;28;20991;-84
2020/12/12 06:49:18;;;;;;;13.40;12.30;;;4.20;99.90;;;;;;5085330;28;20640;-84
2020/12/12 06:51:46;;;;;;;18.83;16.93;;;4.30;99.90;;;;;;5087582;28;21025;-84
2020/12/12 06:54:12;;;;;;;18.60;16.77;;;4.40;99.90;;;;;;5083357;28;20636;-84
2020/12/12 06:56:38;;;;;;;22.53;19.97;;;4.30;99.90;;;;;;5084462;28;20675;-84
2020/12/12 06:59:23;;;;;;;20.70;18.60;;;4.30;99.90;;;;;;5084092;28;20625;-84
2020/12/12 07:01:52;;;;;;;21.40;19.10;;;4.20;99.90;;;;;;5085059;28;20620;-84
2020/12/12 07:04:26;;;;;;;20.23;18.13;;;4.30;99.90;;;;;;5087031;28;21061;-84
2020/12/12 07:06:59;;;;;;;21.70;19.40;;;4.30;99.90;;;;;;5085351;28;20601;-84
2020/12/12 07:09:26;;;;;;;23.27;20.87;;;4.30;99.90;;;;;;5079872;28;20632;-84
2020/12/12 07:11:53;;;;;;;20.97;18.87;;;4.30;99.90;;;;;;5086896;28;20643;-83
2020/12/12 07:14:20;;;;;;;21.90;19.60;;;4.30;99.90;;;;;;5081314;28;20629;-84
2020/12/12 07:16:46;;;;;;;17.90;16.20;;;4.30;99.90;;;;;;5086063;28;20652;-83
2020/12/12 07:19:16;;;;;;;19.73;17.93;;;4.30;99.90;;;;;;5084286;28;20996;-84
2020/12/12 07:21:42;;;;;;;20.20;18.20;;;4.30;99.90;;;;;;5085572;28;20742;-87
2020/12/12 07:24:10;;;;;;;18.27;16.40;;;4.40;99.90;;;;;;5084084;28;20622;-88
2020/12/12 07:26:36;;;;;;;17.50;15.20;;;4.40;99.90;;;;;;5089275;28;20628;-88
2020/12/12 07:29:03;;;;;;;17.63;15.83;;;4.40;99.90;;;;;;5088013;28;21210;-88
2020/12/12 07:31:30;;;;;;;15.00;13.23;;;4.40;99.90;;;;;;5086313;28;20670;-87
2020/12/12 07:34:00;;;;;;;16.17;13.80;;;4.50;99.90;;;;;;5083567;28;20625;-86
2020/12/12 07:36:26;;;;;;;10.97;9.97;;;4.50;99.90;;;;;;5088502;28;20998;-86
2020/12/12 07:38:53;;;;;;;9.03;8.27;;;4.50;99.90;;;;;;5088195;28;20659;-87
2020/12/12 07:41:21;;;;;;;9.37;8.57;;;4.50;99.90;;;;;;5088009;28;20644;-87
2020/12/12 07:43:53;;;;;;;8.57;7.87;;;4.60;99.90;;;;;;5087299;28;20612;-87
2020/12/12 07:46:19;;;;;;;8.63;7.93;;;4.60;99.90;;;;;;5088604;28;20997;-86
2020/12/12 07:48:58;;;;;;;9.70;8.73;;;4.70;99.90;;;;;;5087526;28;20632;-86
2020/12/12 07:51:24;;;;;;;9.27;8.47;;;4.80;99.90;;;;;;5086576;28;20628;-87
2020/12/12 07:53:50;;;;;;;10.20;9.20;;;4.80;99.90;;;;;;5087757;28;20613;-86
2020/12/12 07:56:18;;;;;;;11.00;9.97;;;4.90;99.90;;;;;;5087157;28;20613;-86
2020/12/12 07:58:55;;;;;;;10.13;9.23;;;5.00;99.90;;;;;;5087491;28;20629;-86
2020/12/12 08:01:24;;;;;;;9.20;8.23;;;5.00;99.90;;;;;;5087428;28;21268;-86
2020/12/12 08:03:50;;;;;;;15.10;12.00;;;5.00;99.90;;;;;;5087607;28;20629;-86
2020/12/12 08:06:17;;;;;;;12.33;11.07;;;5.30;99.90;;;;;;5086343;28;21040;-85
2020/12/12 08:08:53;;;;;;;11.27;10.17;;;5.10;99.90;;;;;;5085958;28;20621;-85
2020/12/12 08:11:20;;;;;;;9.53;8.67;;;5.10;99.90;;;;;;5085690;28;20648;-85
2020/12/12 08:13:47;;;;;;;8.90;8.10;;;5.00;99.90;;;;;;5083647;28;21035;-85
2020/12/12 08:16:19;;;;;;;10.33;9.23;;;5.10;99.90;;;;;;5084855;28;20625;-85
2020/12/12 08:18:45;;;;;;;10.50;9.50;;;5.20;99.90;;;;;;5084052;28;20663;-84
2020/12/12 08:21:13;;;;;;;10.60;9.70;;;5.20;99.90;;;;;;5083359;28;21282;-85
2020/12/12 08:23:40;;;;;;;9.20;8.40;;;5.30;99.90;;;;;;5082922;28;21323;-85
2020/12/12 08:26:09;;;;;;;9.37;8.47;;;5.30;99.90;;;;;;5084943;28;20648;-85
2020/12/12 08:28:37;;;;;;;9.90;8.90;;;5.30;99.90;;;;;;5084365;28;20634;-85
2020/12/12 08:31:12;;;;;;;9.90;9.10;;;5.40;99.90;;;;;;5083928;28;21227;-84
2020/12/12 08:33:38;;;;;;;10.00;9.10;;;5.30;99.90;;;;;;5078867;28;20635;-85
2020/12/12 08:36:15;;;;;;;9.80;8.80;;;5.40;99.90;;;;;;5086930;28;20642;-85
2020/12/12 08:38:43;;;;;;;9.40;8.50;;;5.50;99.90;;;;;;5078482;28;21209;-85
2020/12/12 08:41:13;;;;;;;8.97;8.07;;;5.40;99.90;;;;;;5082734;28;20672;-85
2020/12/12 08:43:42;;;;;;;10.87;9.87;;;5.40;99.90;;;;;;5086123;28;20623;-85
2020/12/12 08:46:13;;;;;;;12.50;11.30;;;5.50;99.90;;;;;;5082685;28;20639;-85
2020/12/12 08:48:39;;;;;;;12.03;11.03;;;5.50;99.90;;;;;;5085264;28;20621;-84
2020/12/12 08:51:06;;;;;;;12.93;11.83;;;5.50;99.90;;;;;;5085500;28;20655;-87
2020/12/12 08:53:35;;;;;;;15.30;14.00;;;5.50;99.90;;;;;;5086512;28;20639;-84
2020/12/12 08:56:07;;;;;;;13.80;12.70;;;5.70;99.90;;;;;;5084679;28;20615;-83
2020/12/12 08:58:35;;;;;;;14.83;13.50;;;5.60;99.90;;;;;;5084465;28;20625;-84
2020/12/12 09:01:20;;;;;;;27.50;24.80;;;5.60;99.90;;;;;;5081157;28;20661;-85
2020/12/12 09:03:53;;;;;;;11.10;10.07;;;5.60;99.90;;;;;;5088844;28;20639;-84
2020/12/12 09:06:20;;;;;;;17.80;16.17;;;5.70;99.90;;;;;;5085837;28;20597;-84
2020/12/12 09:08:47;;;;;;;13.20;11.80;;;5.80;99.90;;;;;;5087979;28;20618;-85
2020/12/12 09:11:14;;;;;;;13.67;12.40;;;5.80;99.90;;;;;;5088955;28;20685;-86
2020/12/12 09:13:40;;;;;;;13.20;12.10;;;6.00;99.90;;;;;;5089877;28;20621;-85
2020/12/12 09:16:08;;;;;;;12.37;11.30;;;5.80;99.90;;;;;;5094624;28;20621;-85
2020/12/12 09:18:44;;;;;;;15.03;13.83;;;5.80;99.90;;;;;;5089864;28;20665;-85
2020/12/12 09:21:11;;;;;;;14.70;11.33;;;5.90;99.90;;;;;;5088783;28;20649;-85
2020/12/12 09:23:37;;;;;;;10.70;9.70;;;5.90;99.90;;;;;;5089215;28;20686;-83
2020/12/12 09:26:04;;;;;;;11.40;10.33;;;5.80;99.90;;;;;;5089372;28;20633;-83
2020/12/12 09:28:30;;;;;;;11.97;10.77;;;5.80;99.90;;;;;;5089005;28;20604;-85
2020/12/12 09:30:56;;;;;;;6.97;6.37;;;5.90;99.90;;;;;;5087614;28;21167;-83
2020/12/12 09:33:23;;;;;;;7.57;6.77;;;5.80;99.90;;;;;;5085061;28;20977;-83
2020/12/12 09:35:50;;;;;;;6.10;5.60;;;5.80;99.90;;;;;;5089143;28;20639;-84
2020/12/12 09:38:16;;;;;;;6.07;5.57;;;5.80;99.90;;;;;;5087170;28;20703;-83
2020/12/12 09:40:46;;;;;;;6.17;5.57;;;5.90;99.90;;;;;;5089712;28;20624;-84
2020/12/12 09:43:14;;;;;;;5.77;5.27;;;5.90;99.90;;;;;;5084208;28;20679;-84
2020/12/12 09:45:41;;;;;;;5.90;5.40;;;5.90;99.90;;;;;;5089310;28;21263;-83
2020/12/12 09:48:07;;;;;;;8.47;6.90;;;6.00;99.90;;;;;;5088587;28;20996;-84
2020/12/12 09:50:34;;;;;;;7.10;6.50;;;6.10;99.90;;;;;;5089956;28;20621;-83
2020/12/12 09:53:01;;;;;;;8.63;6.17;;;6.10;99.90;;;;;;5085025;28;20628;-84
2020/12/12 09:55:27;;;;;;;6.90;6.30;;;6.10;99.90;;;;;;5088789;28;21410;-84
2020/12/12 09:57:53;;;;;;;8.00;7.20;;;6.10;99.90;;;;;;5086945;28;20679;-82
2020/12/12 10:00:20;;;;;;;7.73;7.10;;;6.20;99.90;;;;;;5088098;28;20644;-83
2020/12/12 10:02:46;;;;;;;7.93;7.10;;;6.30;99.90;;;;;;5084920;28;21240;-82
2020/12/12 10:05:12;;;;;;;7.33;6.63;;;6.30;99.90;;;;;;5082743;28;20626;-83
2020/12/12 10:07:38;;;;;;;6.03;5.53;;;6.40;99.90;;;;;;5086043;28;20645;-82
2020/12/12 10:10:06;;;;;;;5.70;5.30;;;6.40;99.90;;;;;;5086850;28;20628;-83
2020/12/12 10:12:32;;;;;;;6.47;5.87;;;6.30;99.90;;;;;;5085514;28;20623;-85
2020/12/12 10:15:01;;;;;;;5.97;5.40;;;6.40;99.90;;;;;;5088833;28;20627;-85
2020/12/12 10:17:29;;;;;;;6.77;6.17;;;6.50;99.90;;;;;;5084453;28;21217;-84
2020/12/12 10:19:55;;;;;;;7.17;6.57;;;6.40;99.90;;;;;;5087095;28;20687;-84
2020/12/12 10:22:21;;;;;;;6.27;5.70;;;6.50;99.90;;;;;;5088392;28;20632;-83
2020/12/12 10:24:48;;;;;;;5.57;5.07;;;6.50;99.90;;;;;;5087540;28;20974;-83
2020/12/12 10:27:15;;;;;;;6.30;5.70;;;6.50;99.90;;;;;;5086278;28;20634;-83
2020/12/12 10:33:04;;;;;;;5.53;5.13;;;6.50;99.90;;;;;;5066305;28;21017;-84
2020/12/12 10:35:33;;;;;;;5.20;4.70;;;6.50;99.90;;;;;;5087484;28;20621;-88
2020/12/12 10:38:01;;;;;;;5.50;5.00;;;6.60;99.90;;;;;;5093179;28;20697;-88
2020/12/12 10:40:33;;;;;;;5.80;5.30;;;6.70;99.90;;;;;;5096639;28;20653;-89
2020/12/12 10:43:26;;;;;;;5.27;4.70;;;6.80;99.90;;;;;;5105601;28;20678;-90
2020/12/12 10:46:08;;;;;;;5.20;4.70;;;6.80;99.90;;;;;;5105953;28;20690;-90
2020/12/12 10:48:36;;;;;;;6.43;4.73;;;6.80;99.90;;;;;;5093999;28;20645;-91
2020/12/12 10:51:03;;;;;;;5.20;4.80;;;6.90;99.90;;;;;;5100284;28;20631;-90
2020/12/12 10:53:35;;;;;;;5.40;4.90;;;7.00;99.90;;;;;;5098038;28;20662;-89
2020/12/12 10:56:01;;;;;;;5.00;4.50;;;7.10;99.90;;;;;;5098858;28;20693;-89
2020/12/12 10:58:30;;;;;;;5.30;4.90;;;7.20;99.90;;;;;;5097310;28;20665;-89
2020/12/12 11:00:57;;;;;;;6.50;5.00;;;7.30;99.90;;;;;;5104812;28;20631;-88
2020/12/12 11:03:25;;;;;;;5.70;4.93;;;7.20;99.90;;;;;;5105590;28;20672;-89
2020/12/12 11:05:52;;;;;;;5.00;4.60;;;7.30;99.90;;;;;;5108344;28;20760;-89
2020/12/12 11:08:18;;;;;;;6.47;5.87;;;7.30;99.90;;;;;;5107483;28;20627;-88
2020/12/12 11:10:45;;;;;;;5.30;4.80;;;7.40;99.90;;;;;;5110234;28;20621;-88
2020/12/12 11:13:12;;;;;;;5.80;5.40;;;7.40;99.90;;;;;;5101590;28;20740;-90
2020/12/12 11:15:43;;;;;;;6.80;4.40;;;7.40;99.90;;;;;;5098622;28;20632;-89
2020/12/12 11:18:12;;;;;;;6.33;5.67;;;7.30;99.90;;;;;;5098272;28;20731;-89
2020/12/12 11:20:39;;;;;;;5.57;5.07;;;7.40;99.90;;;;;;5097509;28;20634;-88
2020/12/12 11:23:06;;;;;;;8.10;5.83;;;7.30;99.90;;;;;;5095473;28;20664;-88
2020/12/12 11:25:32;;;;;;;7.13;4.97;;;7.40;99.90;;;;;;5101402;28;20633;-88
2020/12/12 11:27:58;;;;;;;7.30;6.03;;;7.40;99.90;;;;;;5096703;28;20635;-89
2020/12/12 11:30:27;;;;;;;8.93;6.70;;;7.40;99.90;;;;;;5098805;28;20628;-88
2020/12/12 11:32:56;;;;;;;6.90;5.27;;;7.40;99.90;;;;;;5094654;28;20666;-88
2020/12/12 11:35:28;;;;;;;9.87;8.83;;;7.40;99.90;;;;;;5098016;28;20620;-88
2020/12/12 11:40:59;;;;;;;7.03;6.10;;;7.50;99.90;;;;;;5111974;27;21869;-89
2020/12/12 11:43:49;;;;;;;17.77;16.17;;;7.50;99.90;;;;;;5107432;28;20635;-88
2020/12/12 11:46:32;;;;;;;8.57;7.90;;;7.60;99.90;;;;;;5110427;28;20630;-90
2020/12/12 11:48:59;;;;;;;12.53;11.23;;;7.60;99.90;;;;;;5105313;28;20995;-91
2020/12/12 11:51:28;;;;;;;6.93;5.40;;;7.60;99.90;;;;;;5108435;28;20641;-91
2020/12/12 11:53:59;;;;;;;6.60;5.23;;;7.70;99.90;;;;;;5107864;28;21151;-90
2020/12/12 11:56:26;;;;;;;9.77;8.80;;;7.70;99.90;;;;;;5108994;28;20612;-91
2020/12/12 11:58:53;;;;;;;10.27;8.60;;;7.70;99.90;;;;;;5104909;28;21527;-91
2020/12/12 12:01:20;;;;;;;10.30;8.97;;;7.80;99.90;;;;;;5107989;28;20624;-91
2020/12/12 12:03:49;;;;;;;6.20;5.60;;;7.90;99.90;;;;;;5110716;28;20633;-91
2020/12/12 12:06:16;;;;;;;12.00;10.80;;;7.90;99.90;;;;;;5112556;28;20657;-90
2020/12/12 12:08:59;;;;;;;6.53;5.13;;;8.00;99.90;;;;;;5102026;28;21616;-90
2020/12/12 12:11:38;;;;;;;7.50;6.80;;;7.90;99.90;;;;;;5108213;28;20641;-91
2020/12/12 12:14:12;;;;;;;6.00;5.37;;;8.00;99.90;;;;;;5098513;28;20658;-90
2020/12/12 12:16:42;;;;;;;5.97;5.40;;;7.90;99.90;;;;;;5108813;28;20630;-90
2020/12/12 12:19:28;;;;;;;4.53;4.13;;;7.80;99.90;;;;;;5111408;28;20677;-90
2020/12/12 12:21:57;;;;;;;4.73;4.30;;;7.90;99.90;;;;;;5109809;28;21171;-90
2020/12/12 12:24:33;;;;;;;6.53;5.83;;;7.90;99.90;;;;;;5111032;28;20624;-91
2020/12/12 12:27:03;;;;;;;5.77;5.27;;;7.80;99.90;;;;;;5111660;28;20652;-91
2020/12/12 12:29:31;;;;;;;6.47;4.33;;;7.80;99.90;;;;;;5110439;27;20825;-90
2020/12/12 12:32:00;;;;;;;6.57;5.60;;;7.80;99.90;;;;;;5111652;28;20632;-91
2020/12/12 12:34:30;;;;;;;7.60;5.40;;;7.80;99.90;;;;;;5114539;28;20635;-90
2020/12/12 12:36:57;;;;;;;6.87;5.80;;;7.80;99.90;;;;;;5109010;28;20635;-90
2020/12/12 12:39:23;;;;;;;7.13;5.07;;;7.90;99.90;;;;;;5106024;28;20664;-90
2020/12/12 12:41:52;;;;;;;4.80;4.40;;;7.90;99.90;;;;;;5105548;28;20627;-91
2020/12/12 12:44:19;;;;;;;5.47;4.87;;;7.80;99.90;;;;;;5105231;28;20619;-90
2020/12/12 12:46:49;;;;;;;5.80;4.70;;;8.00;99.90;;;;;;5107138;28;20622;-91
2020/12/12 12:49:15;;;;;;;8.90;5.40;;;8.00;99.90;;;;;;5102527;28;20735;-90
2020/12/12 12:51:41;;;;;;;5.43;4.93;;;8.10;99.90;;;;;;5095772;28;20596;-90
2020/12/12 12:54:10;;;;;;;5.33;4.83;;;8.00;99.90;;;;;;5094502;28;20621;-90